createdAt,value
2023-05-25T00:01:49.562Z,15.79
2023-05-25T00:04:19.691Z,15.76
2023-05-25T00:06:47.928Z,15.73
2023-05-25T00:09:16.460Z,15.70
2023-05-25T00:11:44.995Z,15.68
2023-05-25T00:14:13.682Z,15.65
2023-05-25T00:16:41.656Z,15.60
2023-05-25T00:19:10.925Z,15.57
2023-05-25T00:21:39.000Z,15.53
2023-05-25T00:24:07.997Z,15.54
2023-05-25T00:26:36.132Z,15.56
2023-05-25T00:29:04.665Z,15.56
2023-05-25T00:31:35.702Z,15.57
2023-05-25T00:34:03.921Z,15.57
2023-05-25T00:36:32.021Z,15.54
2023-05-25T00:39:00.521Z,15.48
2023-05-25T00:41:28.995Z,15.42
2023-05-25T00:43:57.756Z,15.37
2023-05-25T00:46:26.915Z,15.36
2023-05-25T00:48:56.436Z,15.38
2023-05-25T00:51:26.039Z,15.41
2023-05-25T00:53:54.407Z,15.44
2023-05-25T00:56:29.127Z,15.48
2023-05-25T00:59:00.767Z,15.49
2023-05-25T01:01:33.859Z,15.47
2023-05-25T01:04:07.799Z,15.46
2023-05-25T01:06:39.941Z,15.49
2023-05-25T01:09:11.409Z,15.47
2023-05-25T01:11:43.857Z,15.43
2023-05-25T01:14:13.013Z,15.41
2023-05-25T01:16:42.941Z,15.39
2023-05-25T01:19:11.220Z,15.39
2023-05-25T01:22:13.287Z,15.39
2023-05-25T01:24:45.261Z,15.38
2023-05-25T01:27:25.012Z,15.38
2023-05-25T01:29:54.699Z,15.38
2023-05-25T01:32:23.998Z,15.41
2023-05-25T01:34:55.758Z,15.44
2023-05-25T01:37:24.933Z,15.47
2023-05-25T01:39:52.976Z,15.50
2023-05-25T01:42:21.047Z,15.53
2023-05-25T01:44:49.931Z,15.55
2023-05-25T01:47:33.368Z,15.56
2023-05-25T01:50:32.475Z,15.57
2023-05-25T01:53:04.250Z,15.59
2023-05-25T01:55:48.193Z,15.58
2023-05-25T01:58:17.535Z,15.58
2023-05-25T02:00:49.805Z,15.57
2023-05-25T02:03:20.392Z,15.56
2023-05-25T02:05:50.700Z,15.56
2023-05-25T02:08:19.168Z,15.57
2023-05-25T02:10:47.316Z,15.55
2023-05-25T02:13:15.470Z,15.52
2023-05-25T02:15:43.911Z,15.47
2023-05-25T02:18:13.910Z,15.42
2023-05-25T02:20:42.213Z,15.35
2023-05-25T02:23:11.340Z,15.29
2023-05-25T02:25:39.515Z,15.25
2023-05-25T02:28:07.734Z,15.24
2023-05-25T02:30:36.019Z,15.22
2023-05-25T02:33:04.154Z,15.19
2023-05-25T02:35:32.343Z,15.19
2023-05-25T02:38:00.402Z,15.19
2023-05-25T02:40:29.157Z,15.19
2023-05-25T02:42:57.552Z,15.20
2023-05-25T02:45:25.710Z,15.21
2023-05-25T02:47:53.952Z,15.18
2023-05-25T02:50:23.441Z,15.15
2023-05-25T02:52:54.285Z,15.09
2023-05-25T02:55:23.162Z,15.04
2023-05-25T02:57:52.123Z,15.04
2023-05-25T03:00:33.725Z,15.04
2023-05-25T03:03:02.180Z,15.03
2023-05-25T03:05:30.811Z,15.02
2023-05-25T03:07:58.813Z,15.01
2023-05-25T03:10:26.967Z,15.01
2023-05-25T03:12:55.334Z,15.01
2023-05-25T03:15:24.436Z,15.01
2023-05-25T03:17:54.134Z,15.01
2023-05-25T03:20:24.888Z,15.02
2023-05-25T03:22:53.587Z,15.04
2023-05-25T03:25:21.935Z,15.05
2023-05-25T03:27:54.209Z,15.10
2023-05-25T03:30:23.207Z,15.14
2023-05-25T03:32:52.784Z,15.16
2023-05-25T03:35:21.160Z,15.18
2023-05-25T03:37:49.686Z,15.21
2023-05-25T03:40:18.772Z,15.25
2023-05-25T03:42:46.880Z,15.28
2023-05-25T03:45:15.193Z,15.31
2023-05-25T03:47:43.294Z,15.30
2023-05-25T03:50:12.002Z,15.28
2023-05-25T03:52:40.058Z,15.23
2023-05-25T03:55:08.589Z,15.13
2023-05-25T03:57:36.637Z,15.02
2023-05-25T04:00:05.416Z,15.08
2023-05-25T04:02:40.835Z,15.15
2023-05-25T04:05:09.611Z,15.17
2023-05-25T04:07:38.168Z,15.26
2023-05-25T04:10:07.325Z,15.37
2023-05-25T04:12:35.301Z,15.45
2023-05-25T04:15:05.615Z,15.55
2023-05-25T04:17:39.509Z,15.62
2023-05-25T04:20:09.196Z,15.63
2023-05-25T04:22:39.109Z,15.70
2023-05-25T04:25:08.533Z,15.73
2023-05-25T04:27:37.251Z,15.79
2023-05-25T04:30:07.730Z,15.85
2023-05-25T04:32:55.473Z,15.91
2023-05-25T04:35:43.986Z,15.99
2023-05-25T04:38:12.746Z,16.07
2023-05-25T04:40:41.991Z,16.17
2023-05-25T04:43:11.607Z,16.19
2023-05-25T04:45:39.947Z,16.26
2023-05-25T04:48:09.802Z,16.26
2023-05-25T04:50:43.250Z,16.30
2023-05-25T04:53:11.905Z,16.40
2023-05-25T04:55:40.203Z,16.49
2023-05-25T04:58:08.320Z,16.58
2023-05-25T05:00:36.624Z,16.65
2023-05-25T05:03:05.733Z,16.70
2023-05-25T05:05:36.718Z,16.72
2023-05-25T05:08:06.750Z,16.76
2023-05-25T05:10:35.042Z,16.82
2023-05-25T05:13:04.746Z,16.90
2023-05-25T05:15:33.812Z,16.99
2023-05-25T05:18:01.825Z,17.07
2023-05-25T05:20:30.816Z,17.15
2023-05-25T05:22:58.933Z,17.22
2023-05-25T05:25:27.045Z,17.31
2023-05-25T05:27:55.471Z,17.43
2023-05-25T05:30:26.893Z,17.51
2023-05-25T05:32:55.242Z,17.70
2023-05-25T05:35:25.414Z,17.93
2023-05-25T05:38:02.336Z,18.16
2023-05-25T05:40:30.768Z,18.47
2023-05-25T05:42:59.680Z,18.77
2023-05-25T05:45:28.086Z,19.10
2023-05-25T05:47:57.404Z,19.34
2023-05-25T05:50:25.919Z,19.74
2023-05-25T05:52:54.481Z,20.27
2023-05-25T05:55:23.746Z,20.53
2023-05-25T05:57:53.930Z,20.69
2023-05-25T06:00:22.321Z,20.80
2023-05-25T06:02:52.142Z,20.83
2023-05-25T06:05:22.587Z,20.48
2023-05-25T06:07:53.120Z,20.17
2023-05-25T06:10:22.224Z,20.05
2023-05-25T06:12:50.652Z,19.95
2023-05-25T06:15:19.392Z,19.95
2023-05-25T06:17:48.718Z,19.91
2023-05-25T06:20:17.526Z,19.79
2023-05-25T06:22:46.719Z,19.74
2023-05-25T06:25:16.801Z,19.96
2023-05-25T06:27:45.255Z,20.31
2023-05-25T06:30:14.028Z,20.62
2023-05-25T06:32:43.849Z,20.88
2023-05-25T06:35:19.829Z,21.18
2023-05-25T06:37:50.717Z,21.40
2023-05-25T06:40:20.956Z,21.76
2023-05-25T06:42:49.419Z,22.09
2023-05-25T06:45:48.487Z,22.28
2023-05-25T06:48:17.267Z,22.43
2023-05-25T06:50:46.605Z,22.54
2023-05-25T06:53:14.871Z,22.65
2023-05-25T06:55:43.488Z,22.70
2023-05-25T06:58:12.701Z,22.94
2023-05-25T07:00:41.463Z,23.09
2023-05-25T07:03:09.588Z,23.27
2023-05-25T07:05:37.815Z,23.45
2023-05-25T07:08:06.328Z,23.60
2023-05-25T07:10:34.778Z,23.77
2023-05-25T07:13:02.898Z,23.89
2023-05-25T07:15:31.224Z,24.00
2023-05-25T07:17:59.554Z,24.14
2023-05-25T07:20:27.765Z,24.22
2023-05-25T07:22:55.943Z,24.37
2023-05-25T07:25:24.172Z,24.56
2023-05-25T07:27:55.316Z,24.81
2023-05-25T07:30:23.547Z,25.01
2023-05-25T07:32:51.856Z,25.11
2023-05-25T07:35:20.141Z,25.19
2023-05-25T07:38:04.554Z,25.27
2023-05-25T07:40:33.162Z,25.33
2023-05-25T07:43:06.861Z,25.29
2023-05-25T07:45:36.745Z,25.25
2023-05-25T07:48:17.131Z,25.16
2023-05-25T07:50:46.518Z,24.69
2023-05-25T07:53:15.030Z,24.29
2023-05-25T07:55:43.710Z,24.21
2023-05-25T07:58:12.198Z,24.21
2023-05-25T08:00:40.591Z,24.16
2023-05-25T08:03:08.989Z,24.15
2023-05-25T08:05:37.813Z,23.91
2023-05-25T08:08:06.288Z,23.77
2023-05-25T08:10:34.902Z,23.83
2023-05-25T08:13:03.229Z,23.92
2023-05-25T08:15:31.820Z,23.90
2023-05-25T08:18:00.345Z,23.87
2023-05-25T08:20:28.666Z,23.69
2023-05-25T08:22:56.948Z,23.35
2023-05-25T08:25:25.625Z,23.09
2023-05-25T08:27:53.998Z,23.18
2023-05-25T08:30:22.322Z,23.47
2023-05-25T08:32:50.955Z,23.76
2023-05-25T08:35:19.803Z,24.04
2023-05-25T08:37:48.226Z,24.42
2023-05-25T08:40:18.965Z,24.75
2023-05-25T08:42:47.582Z,24.87
2023-05-25T08:45:26.875Z,25.01
2023-05-25T08:48:08.377Z,25.12
2023-05-25T08:50:38.907Z,25.39
2023-05-25T08:53:12.111Z,25.74
2023-05-25T08:55:43.817Z,25.95
2023-05-25T08:58:19.839Z,25.96
2023-05-25T09:00:57.295Z,25.95
2023-05-25T09:03:27.262Z,25.79
2023-05-25T09:05:57.973Z,25.73
2023-05-25T09:08:27.689Z,25.84
2023-05-25T09:10:58.029Z,25.69
2023-05-25T09:13:26.942Z,25.54
2023-05-25T09:15:56.108Z,25.63
2023-05-25T09:18:24.470Z,25.78
2023-05-25T09:20:53.598Z,25.88
2023-05-25T09:23:22.474Z,25.88
2023-05-25T09:25:51.800Z,25.67
2023-05-25T09:28:26.402Z,25.48
2023-05-25T09:30:56.813Z,25.50
2023-05-25T09:33:25.249Z,25.35
2023-05-25T09:35:53.778Z,25.09
2023-05-25T09:38:22.912Z,24.88
2023-05-25T09:40:51.425Z,24.68
2023-05-25T09:43:32.272Z,24.44
2023-05-25T09:46:08.480Z,24.31
2023-05-25T09:48:37.389Z,24.34
2023-05-25T09:51:07.353Z,24.44
2023-05-25T09:53:35.939Z,24.55
2023-05-25T09:56:04.475Z,24.60
2023-05-25T09:58:33.044Z,24.72
2023-05-25T10:01:01.507Z,25.00
2023-05-25T10:03:29.812Z,25.18
2023-05-25T10:05:58.133Z,25.26
2023-05-25T10:08:29.068Z,25.45
2023-05-25T10:10:57.801Z,25.69
2023-05-25T10:13:30.761Z,25.80
2023-05-25T10:16:00.231Z,25.84
2023-05-25T10:18:30.267Z,25.87
2023-05-25T10:21:04.796Z,26.00
2023-05-25T10:23:42.240Z,26.15
2023-05-25T10:26:16.533Z,26.34
2023-05-25T10:28:48.431Z,26.20
2023-05-25T10:31:18.393Z,25.85
2023-05-25T10:33:50.622Z,25.61
2023-05-25T10:36:21.899Z,25.51
2023-05-25T10:38:52.585Z,25.49
2023-05-25T10:41:22.049Z,25.50
2023-05-25T10:43:53.684Z,25.53
2023-05-25T10:46:22.437Z,25.46
2023-05-25T10:49:00.774Z,25.41
2023-05-25T10:51:39.651Z,25.45
2023-05-25T10:54:08.223Z,25.53
2023-05-25T10:56:36.784Z,25.60
2023-05-25T10:59:06.069Z,25.66
2023-05-25T11:01:50.764Z,25.69
2023-05-25T11:04:19.209Z,25.64
2023-05-25T11:06:48.194Z,25.56
2023-05-25T11:09:29.048Z,25.40
2023-05-25T11:11:59.867Z,25.35
2023-05-25T11:14:31.571Z,25.31
2023-05-25T11:17:13.128Z,25.31
2023-05-25T11:19:45.001Z,25.34
2023-05-25T11:22:18.295Z,25.23
2023-05-25T11:24:59.587Z,24.99
2023-05-25T11:27:30.024Z,24.87
2023-05-25T11:30:00.276Z,24.78
2023-05-25T11:32:29.492Z,24.86
2023-05-25T11:34:59.511Z,25.05
2023-05-25T11:37:31.932Z,25.25
2023-05-25T11:40:00.669Z,25.38
2023-05-25T11:42:29.663Z,25.44
2023-05-25T11:45:03.436Z,25.64
2023-05-25T11:47:33.531Z,25.82
2023-05-25T11:50:04.366Z,25.93
2023-05-25T11:52:33.493Z,26.05
2023-05-25T11:55:02.589Z,26.15
2023-05-25T11:57:31.867Z,26.28
2023-05-25T12:00:03.227Z,26.33
2023-05-25T12:02:39.954Z,26.44
2023-05-25T12:05:11.125Z,26.71
2023-05-25T12:07:45.130Z,26.79
2023-05-25T12:10:16.927Z,26.66
2023-05-25T12:12:50.975Z,26.70
2023-05-25T12:15:24.770Z,26.82
2023-05-25T12:17:54.657Z,26.97
2023-05-25T12:20:23.458Z,27.08
2023-05-25T12:22:52.426Z,27.00
2023-05-25T12:25:24.967Z,26.97
2023-05-25T12:28:13.819Z,26.97
2023-05-25T12:30:42.290Z,27.00
2023-05-25T12:33:14.352Z,26.92
2023-05-25T12:35:48.490Z,26.86
2023-05-25T12:38:22.201Z,26.86
2023-05-25T12:41:09.653Z,26.88
2023-05-25T12:43:44.069Z,26.81
2023-05-25T12:46:23.887Z,26.80
2023-05-25T12:48:52.429Z,26.80
2023-05-25T12:51:20.950Z,26.64
2023-05-25T12:53:53.330Z,26.47
2023-05-25T12:56:22.731Z,26.41
2023-05-25T12:58:51.208Z,26.40
2023-05-25T13:01:19.746Z,26.27
2023-05-25T13:03:48.421Z,26.27
2023-05-25T13:06:16.881Z,26.31
2023-05-25T13:08:45.834Z,26.28
2023-05-25T13:11:15.308Z,26.20
2023-05-25T13:13:45.118Z,26.14
2023-05-25T13:16:13.674Z,26.35
2023-05-25T13:18:42.310Z,26.71
2023-05-25T13:21:11.095Z,27.01
2023-05-25T13:23:39.532Z,27.26
2023-05-25T13:26:08.045Z,27.36
2023-05-25T13:28:36.322Z,27.31
2023-05-25T13:31:05.032Z,27.10
2023-05-25T13:33:33.459Z,27.16
2023-05-25T13:36:11.064Z,27.32
2023-05-25T13:38:39.594Z,27.47
2023-05-25T13:41:08.246Z,27.51
2023-05-25T13:43:37.137Z,27.38
2023-05-25T13:46:05.676Z,27.23
2023-05-25T13:48:33.976Z,27.08
2023-05-25T13:51:04.249Z,27.14
2023-05-25T13:53:32.900Z,27.37
2023-05-25T13:56:01.311Z,27.50
2023-05-25T13:58:29.568Z,27.46
2023-05-25T14:00:58.030Z,27.45
2023-05-25T14:03:26.713Z,27.46
2023-05-25T14:05:55.511Z,27.39
2023-05-25T14:08:24.039Z,27.25
2023-05-25T14:10:52.526Z,27.15
2023-05-25T14:13:21.117Z,26.96
2023-05-25T14:15:49.623Z,26.89
2023-05-25T14:18:18.564Z,26.89
2023-05-25T14:20:47.571Z,26.89
2023-05-25T14:23:18.391Z,26.88
2023-05-25T14:25:48.925Z,26.91
2023-05-25T14:28:17.566Z,26.91
2023-05-25T14:30:46.408Z,26.93
2023-05-25T14:33:17.448Z,26.91
2023-05-25T14:35:46.426Z,26.89
2023-05-25T14:38:15.430Z,27.01
2023-05-25T14:40:44.305Z,27.18
2023-05-25T14:43:13.070Z,27.31
2023-05-25T14:45:41.808Z,27.34
2023-05-25T14:48:16.734Z,27.39
2023-05-25T14:50:45.656Z,27.42
2023-05-25T14:53:14.294Z,27.42
2023-05-25T14:55:42.944Z,27.33
2023-05-25T14:58:12.308Z,27.26
2023-05-25T15:00:41.311Z,27.14
2023-05-25T15:03:09.771Z,26.90
2023-05-25T15:05:38.926Z,26.52
2023-05-25T15:08:09.580Z,26.16
2023-05-25T15:10:38.290Z,25.94
2023-05-25T15:13:07.401Z,25.79
2023-05-25T15:15:36.212Z,25.71
2023-05-25T15:18:04.966Z,25.60
2023-05-25T15:20:34.762Z,25.43
2023-05-25T15:23:03.346Z,25.30
2023-05-25T15:25:35.473Z,25.23
2023-05-25T15:28:04.696Z,25.08
2023-05-25T15:30:34.675Z,24.94
2023-05-25T15:33:03.632Z,24.85
2023-05-25T15:35:32.701Z,24.75
2023-05-25T15:38:01.988Z,24.65
2023-05-25T15:40:31.869Z,24.57
2023-05-25T15:43:00.639Z,24.51
2023-05-25T15:45:29.252Z,24.45
2023-05-25T15:47:58.938Z,24.35
2023-05-25T15:50:28.749Z,24.25
2023-05-25T15:52:58.011Z,24.16
2023-05-25T15:55:28.124Z,24.08
2023-05-25T15:57:56.572Z,24.03
2023-05-25T16:00:26.031Z,23.98
2023-05-25T16:02:54.937Z,23.93
2023-05-25T16:05:24.194Z,23.85
2023-05-25T16:07:53.089Z,23.81
2023-05-25T16:10:21.631Z,23.74
2023-05-25T16:12:50.106Z,23.68
2023-05-25T16:15:18.606Z,23.64
2023-05-25T16:17:47.046Z,23.60
2023-05-25T16:20:15.484Z,23.55
2023-05-25T16:22:43.991Z,23.50
2023-05-25T16:25:12.441Z,23.46
2023-05-25T16:27:41.255Z,23.44
2023-05-25T16:30:12.553Z,23.45
2023-05-25T16:32:42.266Z,23.44
2023-05-25T16:35:10.973Z,23.38
2023-05-25T16:37:39.265Z,23.31
2023-05-25T16:40:09.096Z,23.19
2023-05-25T16:42:38.038Z,23.08
2023-05-25T16:45:07.184Z,23.00
2023-05-25T16:47:35.671Z,22.91
2023-05-25T16:50:04.302Z,22.87
2023-05-25T16:52:32.613Z,22.78
2023-05-25T16:55:00.984Z,22.69
2023-05-25T16:57:29.501Z,22.62
2023-05-25T16:59:57.950Z,22.53
2023-05-25T17:02:26.323Z,22.44
2023-05-25T17:04:54.522Z,22.40
2023-05-25T17:07:23.165Z,22.37
2023-05-25T17:09:51.611Z,22.35
2023-05-25T17:12:20.654Z,22.34
2023-05-25T17:14:49.032Z,22.34
2023-05-25T17:17:17.701Z,22.34
2023-05-25T17:19:46.254Z,22.33
2023-05-25T17:22:14.467Z,22.31
2023-05-25T17:24:42.997Z,22.27
2023-05-25T17:27:11.510Z,22.22
2023-05-25T17:29:40.032Z,22.15
2023-05-25T17:32:08.863Z,22.09
2023-05-25T17:34:37.359Z,22.02
2023-05-25T17:37:05.797Z,21.95
2023-05-25T17:39:34.178Z,21.86
2023-05-25T17:42:03.645Z,21.76
2023-05-25T17:44:32.663Z,21.66
2023-05-25T17:47:01.174Z,21.57
2023-05-25T17:49:29.433Z,21.50
2023-05-25T17:51:58.709Z,21.44
2023-05-25T17:54:27.677Z,21.39
2023-05-25T17:56:56.775Z,21.33
2023-05-25T17:59:25.922Z,21.29
2023-05-25T18:01:54.474Z,21.22
2023-05-25T18:04:22.904Z,21.15
2023-05-25T18:06:52.515Z,21.09
2023-05-25T18:09:21.425Z,21.03
2023-05-25T18:11:49.534Z,20.96
2023-05-25T18:14:18.092Z,20.89
2023-05-25T18:16:47.182Z,20.82
2023-05-25T18:19:18.073Z,20.77
2023-05-25T18:21:46.674Z,20.71
2023-05-25T18:24:14.863Z,20.65
2023-05-25T18:26:46.564Z,20.58
2023-05-25T18:29:16.708Z,20.53
2023-05-25T18:31:49.056Z,20.48
2023-05-25T18:34:17.528Z,20.40
2023-05-25T18:36:45.739Z,20.34
2023-05-25T18:39:13.795Z,20.28
2023-05-25T18:41:42.835Z,20.20
2023-05-25T18:44:12.250Z,20.14
2023-05-25T18:46:43.875Z,20.03
2023-05-25T18:49:12.545Z,19.93
2023-05-25T18:51:41.761Z,19.82
2023-05-25T18:54:11.045Z,19.75
2023-05-25T18:56:39.459Z,19.70
2023-05-25T18:59:07.853Z,19.64
2023-05-25T19:01:36.369Z,19.56
2023-05-25T19:04:06.290Z,19.47
2023-05-25T19:06:36.509Z,19.40
2023-05-25T19:09:05.192Z,19.35
2023-05-25T19:11:33.761Z,19.30
2023-05-25T19:14:02.066Z,19.23
2023-05-25T19:16:30.719Z,19.17
2023-05-25T19:18:59.504Z,19.13
2023-05-25T19:21:27.902Z,19.10
2023-05-25T19:23:58.088Z,19.09
2023-05-25T19:26:27.732Z,19.05
2023-05-25T19:28:56.243Z,19.01
2023-05-25T19:31:26.218Z,18.94
2023-05-25T19:33:54.379Z,18.88
2023-05-25T19:36:23.152Z,18.81
2023-05-25T19:38:51.558Z,18.76
2023-05-25T19:41:19.710Z,18.72
2023-05-25T19:43:48.131Z,18.67
2023-05-25T19:46:17.644Z,18.62
2023-05-25T19:48:46.433Z,18.54
2023-05-25T19:51:14.914Z,18.50
2023-05-25T19:53:43.514Z,18.45
2023-05-25T19:56:12.348Z,18.42
2023-05-25T19:58:41.031Z,18.39
2023-05-25T20:01:11.377Z,18.36
2023-05-25T20:03:40.354Z,18.31
2023-05-25T20:06:08.939Z,18.25
2023-05-25T20:08:37.794Z,18.23
2023-05-25T20:11:05.845Z,18.17
2023-05-25T20:13:35.284Z,18.12
2023-05-25T20:16:04.239Z,18.04
2023-05-25T20:18:32.393Z,17.99
2023-05-25T20:21:00.897Z,17.95
2023-05-25T20:23:29.179Z,17.93
2023-05-25T20:25:57.349Z,17.91
2023-05-25T20:28:26.039Z,17.89
2023-05-25T20:30:54.369Z,17.88
2023-05-25T20:33:22.831Z,17.87
2023-05-25T20:35:51.936Z,17.84
2023-05-25T20:38:21.713Z,17.80
2023-05-25T20:40:49.768Z,17.76
2023-05-25T20:43:18.116Z,17.69
2023-05-25T20:45:46.670Z,17.62
2023-05-25T20:48:15.907Z,17.55
2023-05-25T20:50:44.844Z,17.51
2023-05-25T20:53:13.272Z,17.48
2023-05-25T20:55:42.724Z,17.45
2023-05-25T20:58:11.248Z,17.43
2023-05-25T21:00:40.038Z,17.41
2023-05-25T21:06:26.669Z,17.42
2023-05-25T21:08:54.897Z,17.42
2023-05-25T21:11:23.054Z,17.42
2023-05-25T21:13:51.060Z,17.40
2023-05-25T21:16:19.222Z,17.40
2023-05-25T21:18:47.500Z,17.39
2023-05-25T21:21:16.303Z,17.36
2023-05-25T21:23:44.398Z,17.34
2023-05-25T21:26:12.676Z,17.36
2023-05-25T21:28:40.790Z,17.38
2023-05-25T21:31:08.938Z,17.39
2023-05-25T21:33:37.887Z,17.40
2023-05-25T21:36:06.409Z,17.41
2023-05-25T21:38:34.424Z,17.41
2023-05-25T21:41:02.567Z,17.43
2023-05-25T21:43:31.121Z,17.44
2023-05-25T21:45:59.213Z,17.43
2023-05-25T21:48:27.495Z,17.42
2023-05-25T21:50:55.704Z,17.39
2023-05-25T21:53:23.802Z,17.37
2023-05-25T21:55:53.200Z,17.35
2023-05-25T21:58:21.493Z,17.32
2023-05-25T22:00:49.602Z,17.27
2023-05-25T22:03:18.559Z,17.23
2023-05-25T22:05:46.933Z,17.25
2023-05-25T22:08:15.151Z,17.25
2023-05-25T22:10:43.345Z,17.25
2023-05-25T22:13:11.791Z,17.26
